createdAt,value
2022-08-26T00:02:12.662Z,20.30
2022-08-26T00:04:42.674Z,20.20
2022-08-26T00:07:12.062Z,24.00
2022-08-26T00:09:40.516Z,20.20
2022-08-26T00:12:09.437Z,20.10
2022-08-26T00:14:41.209Z,20.20
2022-08-26T00:17:09.529Z,20.20
2022-08-26T00:19:38.163Z,20.30
2022-08-26T00:22:08.000Z,20.30
2022-08-26T00:24:36.154Z,20.30
2022-08-26T00:27:06.437Z,20.20
2022-08-26T00:29:35.541Z,20.20
2022-08-26T00:32:06.663Z,20.90
2022-08-26T00:34:35.301Z,19.90
2022-08-26T00:37:04.201Z,20.20
2022-08-26T00:39:38.520Z,20.00
2022-08-26T00:42:06.942Z,19.90
2022-08-26T00:44:35.080Z,20.10
2022-08-26T00:47:09.081Z,20.00
2022-08-26T00:49:40.147Z,19.40
2022-08-26T00:52:13.095Z,19.40
2022-08-26T00:54:47.784Z,19.50
2022-08-26T00:57:19.701Z,20.30
2022-08-26T00:59:50.184Z,20.10
2022-08-26T01:02:21.183Z,19.40
2022-08-26T01:04:55.428Z,18.80
2022-08-26T01:07:26.272Z,20.10
2022-08-26T01:09:57.580Z,19.60
2022-08-26T01:12:29.343Z,19.40
2022-08-26T01:14:57.473Z,19.10
2022-08-26T01:17:26.247Z,19.60
2022-08-26T01:19:59.832Z,19.40
2022-08-26T01:22:34.039Z,19.60
2022-08-26T01:25:05.147Z,19.70
2022-08-26T01:27:35.705Z,19.90
2022-08-26T01:30:05.936Z,18.70
2022-08-26T01:32:36.294Z,19.70
2022-08-26T01:35:08.783Z,19.50
2022-08-26T01:37:40.345Z,19.80
2022-08-26T01:40:17.030Z,19.30
2022-08-26T01:42:46.885Z,19.80
2022-08-26T01:45:19.619Z,18.70
2022-08-26T01:47:49.737Z,19.50
2022-08-26T01:50:30.412Z,19.90
2022-08-26T01:53:02.249Z,19.80
2022-08-26T01:55:34.058Z,19.30
2022-08-26T01:58:06.944Z,19.30
2022-08-26T02:00:37.077Z,19.60
2022-08-26T02:03:24.919Z,19.30
2022-08-26T02:05:55.370Z,19.20
2022-08-26T02:08:27.167Z,19.60
2022-08-26T02:10:56.852Z,18.60
2022-08-26T02:13:28.163Z,18.70
2022-08-26T02:15:56.776Z,19.10
2022-08-26T02:18:26.741Z,18.90
2022-08-26T02:20:57.053Z,19.00
2022-08-26T02:23:26.138Z,18.10
2022-08-26T02:26:02.174Z,18.90
2022-08-26T02:28:34.375Z,19.30
2022-08-26T02:31:02.819Z,19.50
2022-08-26T02:33:33.294Z,18.90
2022-08-26T02:36:04.390Z,19.30
2022-08-26T02:38:32.746Z,19.20
2022-08-26T02:41:03.596Z,18.50
2022-08-26T02:43:32.960Z,19.00
2022-08-26T02:46:02.645Z,18.20
2022-08-26T02:48:31.703Z,18.40
2022-08-26T02:51:01.902Z,19.40
2022-08-26T02:53:31.768Z,18.70
2022-08-26T02:56:00.834Z,18.00
2022-08-26T02:58:30.940Z,18.30
2022-08-26T03:00:59.188Z,18.50
2022-08-26T03:03:27.418Z,18.40
2022-08-26T03:05:56.158Z,18.50
2022-08-26T03:08:24.788Z,18.50
2022-08-26T03:10:53.675Z,18.70
2022-08-26T03:13:21.801Z,18.50
2022-08-26T03:15:51.781Z,18.60
2022-08-26T03:18:19.992Z,18.30
2022-08-26T03:20:48.871Z,18.50
2022-08-26T03:23:17.147Z,18.20
2022-08-26T03:25:50.596Z,18.20
2022-08-26T03:28:19.315Z,18.50
2022-08-26T03:30:48.168Z,18.40
2022-08-26T03:33:19.252Z,18.40
2022-08-26T03:35:50.709Z,18.40
2022-08-26T03:38:20.366Z,18.00
2022-08-26T03:40:48.926Z,18.30
2022-08-26T03:43:19.738Z,18.30
2022-08-26T03:45:48.138Z,18.20
2022-08-26T03:48:16.216Z,18.20
2022-08-26T03:50:46.081Z,17.80
2022-08-26T03:53:17.216Z,18.20
2022-08-26T03:55:48.783Z,18.20
2022-08-26T03:58:20.663Z,18.60
2022-08-26T04:00:50.247Z,18.70
2022-08-26T04:03:37.628Z,18.20
2022-08-26T04:06:08.125Z,18.00
2022-08-26T04:08:37.804Z,17.80
2022-08-26T04:11:07.667Z,17.90
2022-08-26T04:13:35.998Z,17.80
2022-08-26T04:16:04.520Z,18.00
2022-08-26T04:18:37.096Z,17.80
2022-08-26T04:21:07.978Z,17.70
2022-08-26T04:23:47.553Z,18.20
2022-08-26T04:26:17.007Z,18.00
2022-08-26T04:28:45.252Z,17.90
2022-08-26T04:31:14.695Z,17.50
2022-08-26T04:33:43.592Z,18.20
2022-08-26T04:36:13.438Z,17.80
2022-08-26T04:38:41.631Z,17.60
2022-08-26T04:41:15.602Z,18.20
2022-08-26T04:43:46.962Z,17.10
2022-08-26T04:46:19.831Z,17.90
2022-08-26T04:48:48.974Z,17.60
2022-08-26T04:51:18.430Z,17.60
2022-08-26T04:53:47.093Z,17.60
2022-08-26T04:56:15.527Z,17.40
2022-08-26T04:58:43.625Z,18.40
2022-08-26T05:01:12.697Z,18.20
2022-08-26T05:03:41.043Z,17.40
2022-08-26T05:06:09.833Z,18.60
2022-08-26T05:08:39.882Z,18.10
2022-08-26T05:11:10.037Z,18.10
2022-08-26T05:13:39.282Z,18.80
2022-08-26T05:16:11.671Z,18.40
2022-08-26T05:18:41.349Z,18.40
2022-08-26T05:21:18.620Z,18.40
2022-08-26T05:23:49.454Z,18.80
2022-08-26T05:26:18.010Z,18.50
2022-08-26T05:28:54.597Z,18.50
2022-08-26T05:31:24.942Z,18.90
2022-08-26T05:33:53.944Z,18.40
2022-08-26T05:36:24.293Z,18.50
2022-08-26T05:38:57.856Z,19.50
2022-08-26T05:41:36.181Z,18.20
2022-08-26T05:44:07.092Z,18.50
2022-08-26T05:46:36.758Z,18.70
2022-08-26T05:49:06.588Z,18.70
2022-08-26T05:51:46.299Z,18.90
2022-08-26T05:54:21.973Z,18.80
2022-08-26T05:56:51.081Z,19.80
2022-08-26T05:59:24.359Z,19.50
2022-08-26T06:01:53.354Z,19.60
2022-08-26T06:04:22.684Z,20.00
2022-08-26T06:06:53.305Z,20.00
2022-08-26T06:09:22.899Z,19.90
2022-08-26T06:11:51.480Z,20.10
2022-08-26T06:14:19.692Z,20.00
2022-08-26T06:19:17.305Z,19.40
2022-08-26T06:21:54.097Z,19.70
2022-08-26T06:24:41.743Z,20.10
2022-08-26T06:27:15.180Z,20.30
2022-08-26T06:29:43.536Z,19.80
2022-08-26T06:32:11.795Z,20.10
2022-08-26T06:34:40.127Z,20.30
2022-08-26T06:39:41.059Z,20.00
2022-08-26T06:42:10.913Z,19.90
2022-08-26T06:44:40.979Z,20.30
2022-08-26T06:47:09.495Z,20.40
2022-08-26T06:49:38.251Z,20.10
2022-08-26T06:52:08.017Z,19.90
2022-08-26T06:54:43.067Z,20.80
2022-08-26T06:57:13.209Z,21.30
2022-08-26T06:59:42.644Z,20.60
2022-08-26T07:02:13.514Z,21.10
2022-08-26T07:04:42.142Z,20.60
2022-08-26T07:07:15.423Z,21.00
2022-08-26T07:09:45.835Z,21.00
2022-08-26T07:12:14.007Z,21.50
2022-08-26T07:14:47.324Z,20.80
2022-08-26T07:17:16.613Z,20.60
2022-08-26T07:19:44.803Z,20.20
2022-08-26T07:22:13.902Z,20.80
2022-08-26T07:24:42.461Z,20.90
2022-08-26T07:27:14.250Z,21.00
2022-08-26T07:29:43.669Z,21.20
2022-08-26T07:32:14.326Z,21.40
2022-08-26T07:34:43.870Z,21.40
2022-08-26T07:37:12.905Z,21.10
2022-08-26T07:39:41.668Z,21.10
2022-08-26T07:42:14.197Z,20.90
2022-08-26T07:44:43.460Z,21.10
2022-08-26T07:47:25.075Z,21.10
2022-08-26T07:49:55.585Z,21.30
2022-08-26T07:52:26.765Z,21.20
2022-08-26T07:54:56.346Z,21.20
2022-08-26T07:57:26.716Z,20.90
2022-08-26T07:59:55.384Z,21.20
2022-08-26T08:02:24.783Z,21.30
2022-08-26T08:04:53.408Z,21.40
2022-08-26T08:07:21.690Z,21.50
2022-08-26T08:10:11.359Z,21.70
2022-08-26T08:12:42.387Z,22.10
2022-08-26T08:15:13.711Z,21.50
2022-08-26T08:17:42.909Z,20.60
2022-08-26T08:20:12.209Z,21.30
2022-08-26T08:22:40.333Z,21.40
2022-08-26T08:25:10.582Z,21.40
2022-08-26T08:27:42.569Z,21.60
2022-08-26T08:30:13.792Z,21.60
2022-08-26T08:32:43.548Z,21.80
2022-08-26T08:35:13.441Z,22.00
2022-08-26T08:37:42.459Z,22.10
2022-08-26T08:40:13.256Z,22.10
2022-08-26T08:42:47.502Z,22.10
2022-08-26T08:45:20.960Z,22.30
2022-08-26T08:47:54.632Z,22.10
2022-08-26T08:50:29.687Z,22.20
2022-08-26T08:53:09.812Z,22.40
2022-08-26T08:55:51.845Z,22.40
2022-08-26T08:58:28.302Z,22.50
2022-08-26T09:01:01.376Z,22.60
2022-08-26T09:03:47.199Z,22.60
2022-08-26T09:06:18.753Z,22.60
2022-08-26T09:08:49.993Z,22.80
2022-08-26T09:11:19.826Z,23.00
2022-08-26T09:13:53.164Z,23.00
2022-08-26T09:16:26.006Z,23.10
2022-08-26T09:19:05.482Z,23.20
2022-08-26T09:21:33.997Z,23.40
2022-08-26T09:24:02.613Z,23.30
2022-08-26T09:26:43.226Z,23.40
2022-08-26T09:29:22.580Z,23.60
2022-08-26T09:31:51.421Z,23.60
2022-08-26T09:34:21.500Z,23.70
2022-08-26T09:36:51.718Z,23.80
2022-08-26T09:39:29.390Z,23.80
2022-08-26T09:42:14.306Z,23.90
2022-08-26T09:44:57.508Z,24.10
2022-08-26T09:47:31.651Z,24.10
2022-08-26T09:50:09.813Z,24.20
2022-08-26T09:52:40.328Z,24.10
2022-08-26T09:55:16.168Z,24.10
2022-08-26T09:57:51.111Z,24.20
2022-08-26T10:00:34.121Z,24.20
2022-08-26T10:03:04.477Z,24.10
2022-08-26T10:05:39.573Z,24.10
2022-08-26T10:08:24.918Z,24.40
2022-08-26T10:10:55.301Z,24.50
2022-08-26T10:13:29.553Z,24.60
2022-08-26T10:16:07.291Z,24.70
2022-08-26T10:18:43.595Z,24.60
2022-08-26T10:21:18.054Z,24.60
2022-08-26T10:23:50.895Z,24.40
2022-08-26T10:26:24.005Z,24.40
2022-08-26T10:29:01.543Z,24.30
2022-08-26T10:31:40.375Z,24.40
2022-08-26T10:34:12.385Z,24.50
2022-08-26T10:37:15.041Z,24.70
2022-08-26T10:39:57.065Z,24.70
2022-08-26T10:42:35.042Z,24.70
2022-08-26T10:45:11.895Z,24.80
2022-08-26T10:47:49.634Z,24.80
2022-08-26T10:50:18.275Z,24.80
2022-08-26T10:52:58.596Z,24.90
2022-08-26T10:55:37.118Z,24.60
2022-08-26T10:58:26.127Z,24.80
2022-08-26T11:01:23.608Z,24.80
2022-08-26T11:04:01.256Z,25.00
2022-08-26T11:06:32.737Z,25.20
2022-08-26T11:09:03.075Z,25.30
2022-08-26T11:11:50.042Z,25.30
2022-08-26T11:14:53.357Z,25.40
2022-08-26T11:17:56.470Z,25.60
2022-08-26T11:20:37.137Z,25.40
2022-08-26T11:23:40.438Z,25.30
2022-08-26T11:26:29.995Z,25.40
2022-08-26T11:29:12.148Z,25.50
2022-08-26T11:31:56.862Z,25.40
2022-08-26T11:34:58.351Z,25.30
2022-08-26T11:37:34.307Z,25.60
2022-08-26T11:40:07.582Z,25.60
2022-08-26T11:42:41.078Z,25.40
2022-08-26T11:45:19.629Z,25.20
2022-08-26T11:47:49.466Z,25.50
2022-08-26T11:50:21.485Z,25.40
2022-08-26T11:52:56.319Z,25.40
2022-08-26T11:55:25.562Z,25.30
2022-08-26T11:57:57.403Z,25.40
2022-08-26T12:00:33.869Z,25.30
2022-08-26T12:03:09.008Z,25.40
2022-08-26T12:05:43.835Z,25.70
2022-08-26T12:08:18.823Z,25.90
2022-08-26T12:10:48.291Z,25.90
2022-08-26T12:13:23.253Z,26.00
2022-08-26T12:15:55.883Z,26.10
2022-08-26T12:18:29.561Z,26.10
2022-08-26T12:21:01.376Z,26.30
2022-08-26T12:23:42.045Z,26.20
2022-08-26T12:26:19.410Z,26.10
2022-08-26T12:28:50.207Z,25.70
2022-08-26T12:31:25.972Z,25.30
2022-08-26T12:33:55.396Z,25.60
2022-08-26T12:36:27.542Z,25.60
2022-08-26T12:38:59.178Z,25.70
2022-08-26T12:41:46.422Z,26.00
2022-08-26T12:44:38.809Z,26.00
2022-08-26T12:47:11.122Z,25.60
2022-08-26T12:49:40.953Z,25.40
2022-08-26T12:52:29.996Z,25.30
2022-08-26T12:55:02.921Z,25.70
2022-08-26T12:57:35.135Z,25.90
2022-08-26T13:00:31.437Z,25.70
2022-08-26T13:03:01.688Z,25.70
2022-08-26T13:05:33.171Z,25.70
2022-08-26T13:08:16.723Z,25.90
2022-08-26T13:10:48.689Z,26.20
2022-08-26T13:13:16.761Z,26.00
2022-08-26T13:15:45.007Z,26.20
2022-08-26T13:18:13.076Z,25.80
2022-08-26T13:20:44.840Z,25.60
2022-08-26T13:23:13.417Z,25.90
2022-08-26T13:25:41.832Z,25.80
2022-08-26T13:28:11.445Z,23.00
2022-08-26T13:30:40.489Z,26.00
2022-08-26T13:33:09.776Z,26.20
2022-08-26T13:35:40.581Z,26.40
2022-08-26T13:38:14.617Z,26.50
2022-08-26T13:41:02.664Z,26.40
2022-08-26T13:43:32.862Z,26.30
2022-08-26T13:46:01.949Z,26.40
2022-08-26T13:48:31.444Z,26.30
2022-08-26T13:51:00.146Z,26.30
2022-08-26T13:53:29.519Z,26.30
2022-08-26T13:55:58.152Z,26.60
2022-08-26T13:58:26.524Z,26.90
2022-08-26T14:00:57.664Z,26.90
2022-08-26T14:03:26.136Z,26.60
2022-08-26T14:05:54.483Z,26.70
2022-08-26T14:08:23.269Z,26.80
2022-08-26T14:10:51.463Z,27.00
2022-08-26T14:13:19.898Z,27.10
2022-08-26T14:15:48.161Z,26.80
2022-08-26T14:18:23.890Z,26.80
2022-08-26T14:20:55.018Z,26.90
2022-08-26T14:23:23.352Z,26.70
2022-08-26T14:25:51.714Z,26.80
2022-08-26T14:28:20.065Z,28.10
2022-08-26T14:30:53.694Z,27.20
2022-08-26T14:33:26.903Z,27.10
2022-08-26T14:36:15.592Z,27.00
2022-08-26T14:38:44.188Z,26.70
2022-08-26T14:41:12.540Z,26.50
2022-08-26T14:43:44.141Z,26.40
2022-08-26T14:46:12.438Z,26.10
2022-08-26T14:48:42.034Z,25.80
2022-08-26T14:51:10.323Z,25.70
2022-08-26T14:53:56.118Z,25.70
2022-08-26T14:56:24.324Z,25.90
2022-08-26T14:58:52.391Z,25.80
2022-08-26T15:01:20.670Z,25.60
2022-08-26T15:03:51.084Z,25.70
2022-08-26T15:06:19.226Z,25.70
2022-08-26T15:08:47.332Z,25.40
2022-08-26T15:11:18.400Z,25.40
2022-08-26T15:13:47.055Z,25.30
2022-08-26T15:16:15.680Z,25.40
2022-08-26T15:18:43.981Z,25.60
2022-08-26T15:21:13.553Z,25.60
2022-08-26T15:23:42.410Z,25.40
2022-08-26T15:26:17.387Z,25.40
2022-08-26T15:28:45.937Z,25.10
2022-08-26T15:31:14.165Z,25.00
2022-08-26T15:33:42.690Z,24.90
2022-08-26T15:36:11.742Z,24.90
2022-08-26T15:38:42.511Z,24.80
2022-08-26T15:41:11.151Z,24.80
2022-08-26T15:43:39.471Z,24.70
2022-08-26T15:46:12.284Z,24.60
2022-08-26T15:48:41.251Z,24.80
2022-08-26T15:51:19.563Z,24.80
2022-08-26T15:53:49.105Z,24.90
2022-08-26T15:56:17.509Z,25.00
2022-08-26T15:58:46.799Z,24.90
2022-08-26T16:01:27.169Z,25.00
2022-08-26T16:03:56.841Z,24.80
2022-08-26T16:06:28.113Z,24.70
2022-08-26T16:08:58.838Z,24.50
2022-08-26T16:11:28.473Z,24.30
2022-08-26T16:13:58.004Z,24.20
2022-08-26T16:16:26.564Z,24.20
2022-08-26T16:18:55.581Z,24.30
2022-08-26T16:21:28.110Z,24.30
2022-08-26T16:23:58.791Z,24.20
2022-08-26T16:26:30.094Z,24.10
2022-08-26T16:28:59.926Z,23.90
2022-08-26T16:31:28.316Z,23.90
2022-08-26T16:33:56.544Z,23.90
2022-08-26T16:36:26.135Z,22.50
2022-08-26T16:38:56.721Z,23.70
2022-08-26T16:41:29.625Z,23.90
2022-08-26T16:43:59.846Z,24.00
2022-08-26T16:46:29.287Z,24.00
2022-08-26T16:48:59.119Z,23.90
2022-08-26T16:51:28.774Z,23.80
2022-08-26T16:53:58.848Z,23.90
2022-08-26T16:56:34.027Z,23.80
2022-08-26T16:59:05.394Z,23.80
2022-08-26T17:01:34.839Z,23.80
2022-08-26T17:04:05.013Z,23.70
2022-08-26T17:06:34.020Z,23.80
2022-08-26T17:09:02.305Z,23.70
2022-08-26T17:11:32.173Z,23.80
2022-08-26T17:14:00.471Z,23.80
2022-08-26T17:16:30.107Z,23.70
2022-08-26T17:18:59.794Z,23.70
2022-08-26T17:21:29.102Z,23.60
2022-08-26T17:23:57.346Z,23.50
2022-08-26T17:26:25.555Z,23.30
2022-08-26T17:28:55.901Z,23.30
2022-08-26T17:31:25.175Z,23.40
2022-08-26T17:33:55.433Z,23.40
2022-08-26T17:36:27.459Z,23.30
2022-08-26T17:38:57.278Z,23.20
2022-08-26T17:41:25.832Z,23.20
2022-08-26T17:43:55.406Z,23.20
2022-08-26T17:46:23.697Z,23.20
2022-08-26T17:48:52.046Z,21.50
2022-08-26T17:51:20.861Z,23.20
2022-08-26T17:53:49.756Z,23.10
2022-08-26T17:56:20.330Z,23.10
2022-08-26T17:58:52.826Z,23.10
2022-08-26T18:01:23.615Z,21.10
2022-08-26T18:03:52.739Z,23.20
2022-08-26T18:06:24.166Z,23.10
2022-08-26T18:08:52.619Z,23.00
2022-08-26T18:11:24.577Z,22.80
2022-08-26T18:13:53.259Z,22.80
2022-08-26T18:16:23.323Z,22.80
2022-08-26T18:18:53.436Z,22.80
2022-08-26T18:21:25.380Z,22.70
2022-08-26T18:23:54.324Z,22.70
2022-08-26T18:26:25.396Z,22.70
2022-08-26T18:28:54.310Z,22.70
2022-08-26T18:31:23.965Z,22.60
2022-08-26T18:33:52.484Z,22.60
2022-08-26T18:36:22.756Z,22.50
2022-08-26T18:38:51.803Z,22.60
2022-08-26T18:41:21.743Z,22.60
2022-08-26T18:43:51.436Z,22.60
2022-08-26T18:46:20.535Z,22.60
2022-08-26T18:48:51.187Z,22.50
2022-08-26T18:51:22.550Z,22.30
2022-08-26T18:53:51.444Z,22.30
2022-08-26T18:56:20.329Z,22.30
2022-08-26T18:58:48.658Z,22.30
2022-08-26T19:01:17.951Z,22.20
2022-08-26T19:03:46.804Z,22.10
2022-08-26T19:06:18.489Z,22.10
2022-08-26T19:08:49.947Z,19.70
2022-08-26T19:11:31.241Z,22.20
2022-08-26T19:14:01.111Z,22.00
2022-08-26T19:16:29.789Z,22.10
2022-08-26T19:18:58.963Z,22.00
2022-08-26T19:21:28.855Z,22.00
2022-08-26T19:23:58.020Z,22.00
2022-08-26T19:26:27.317Z,22.10
2022-08-26T19:28:55.613Z,21.30
2022-08-26T19:31:23.907Z,22.10
2022-08-26T19:33:52.038Z,22.20
2022-08-26T19:36:22.849Z,22.20
2022-08-26T19:38:53.562Z,22.20
2022-08-26T19:41:29.417Z,22.10
2022-08-26T19:44:08.365Z,21.90
2022-08-26T19:49:06.044Z,21.80
2022-08-26T19:51:36.368Z,21.60
2022-08-26T19:54:06.404Z,21.60
2022-08-26T19:56:34.967Z,21.70
2022-08-26T19:59:03.222Z,22.00
2022-08-26T20:01:31.865Z,21.80
2022-08-26T20:04:00.055Z,21.60
2022-08-26T20:06:28.311Z,22.10
2022-08-26T20:08:56.615Z,21.80
2022-08-26T20:11:26.490Z,20.60
2022-08-26T20:13:55.317Z,21.30
2022-08-26T20:16:23.641Z,21.40
2022-08-26T20:19:09.371Z,20.70
2022-08-26T20:21:39.893Z,21.50
2022-08-26T20:24:10.015Z,20.90
2022-08-26T20:26:42.823Z,21.30
2022-08-26T20:29:12.910Z,21.20
2022-08-26T20:31:42.810Z,21.50
2022-08-26T20:34:11.604Z,21.10
2022-08-26T20:36:40.894Z,17.10
2022-08-26T20:39:10.804Z,21.10
2022-08-26T20:41:40.844Z,21.20
2022-08-26T20:44:09.361Z,21.00
2022-08-26T20:46:37.725Z,21.10
2022-08-26T20:49:07.582Z,20.90
2022-08-26T20:51:37.509Z,20.60
2022-08-26T20:54:06.547Z,21.00
2022-08-26T20:56:34.887Z,21.00
2022-08-26T20:59:06.922Z,20.80
2022-08-26T21:01:37.250Z,20.30
2022-08-26T21:04:13.178Z,20.80
2022-08-26T21:06:42.358Z,20.80
2022-08-26T21:09:18.471Z,20.80
2022-08-26T21:11:46.587Z,20.50
2022-08-26T21:14:17.395Z,20.60
2022-08-26T21:16:47.255Z,20.80
2022-08-26T21:19:19.425Z,21.40
2022-08-26T21:21:49.003Z,20.60
2022-08-26T21:24:17.800Z,20.70
2022-08-26T21:26:46.239Z,20.70
2022-08-26T21:29:15.708Z,20.10
2022-08-26T21:31:46.442Z,20.80
2022-08-26T21:34:15.400Z,20.90
2022-08-26T21:36:43.654Z,20.40
2022-08-26T21:39:12.374Z,21.30
2022-08-26T21:41:42.010Z,20.90
2022-08-26T21:44:11.433Z,20.30
2022-08-26T21:46:41.337Z,20.40
2022-08-26T21:49:12.229Z,20.00
2022-08-26T21:51:43.181Z,20.20
2022-08-26T21:54:12.133Z,20.10
2022-08-26T21:56:44.186Z,20.50
2022-08-26T21:59:13.299Z,20.70
2022-08-26T22:01:42.986Z,20.10
2022-08-26T22:04:11.932Z,20.10
2022-08-26T22:06:45.532Z,21.10
2022-08-26T22:09:16.145Z,20.60
2022-08-26T22:11:44.457Z,20.50
2022-08-26T22:14:13.330Z,21.20
2022-08-26T22:16:50.281Z,20.50
2022-08-26T22:19:20.068Z,20.30
2022-08-26T22:21:50.164Z,17.90
2022-08-26T22:24:18.838Z,20.00
2022-08-26T22:26:48.619Z,20.20
2022-08-26T22:29:16.863Z,20.70
2022-08-26T22:31:46.772Z,20.50
2022-08-26T22:34:17.486Z,20.00
2022-08-26T22:36:48.018Z,20.30
2022-08-26T22:39:18.281Z,20.50
2022-08-26T22:41:48.537Z,20.20
2022-08-26T22:44:17.313Z,20.30
2022-08-26T22:46:47.541Z,20.10
2022-08-26T22:49:17.035Z,20.20
2022-08-26T22:51:45.546Z,20.60
2022-08-26T22:54:14.571Z,19.70
2022-08-26T22:56:43.554Z,19.20
2022-08-26T22:59:13.235Z,19.80
2022-08-26T23:01:43.748Z,20.30
2022-08-26T23:04:13.778Z,20.00
2022-08-26T23:06:47.767Z,20.00
2022-08-26T23:09:17.915Z,20.10
2022-08-26T23:11:46.909Z,19.10
2022-08-26T23:14:15.235Z,23.20
2022-08-26T23:16:43.777Z,19.90
2022-08-26T23:19:14.661Z,20.20
2022-08-26T23:21:42.877Z,19.90
2022-08-26T23:24:11.359Z,19.50
2022-08-26T23:26:41.164Z,20.30
2022-08-26T23:29:11.397Z,20.20
2022-08-26T23:31:41.069Z,20.20
2022-08-26T23:34:26.525Z,19.40
2022-08-26T23:36:59.157Z,19.60
2022-08-26T23:39:28.336Z,20.10
2022-08-26T23:41:56.951Z,19.80
2022-08-26T23:44:26.608Z,20.00
2022-08-26T23:46:55.037Z,15.90
2022-08-26T23:49:23.220Z,20.10
2022-08-26T23:52:08.812Z,19.90
2022-08-26T23:54:38.894Z,20.10
2022-08-26T23:57:07.301Z,19.30
2022-08-26T23:59:35.583Z,18.90
